sensor_id;sensor_type;location;lat;lon;timestamp;pressure;altitude;pressure_sealevel;temperature;humidity
15489;BME280;7846;48.830;9.116;2023-06-10T00:01:47;97478.69;;;19.76;59.99
15489;BME280;7846;48.830;9.116;2023-06-10T00:04:14;97483.28;;;19.88;60.27
15489;BME280;7846;48.830;9.116;2023-06-10T00:06:42;97479.69;;;19.94;59.54
15489;BME280;7846;48.830;9.116;2023-06-10T00:09:09;97487.34;;;19.90;59.82
15489;BME280;7846;48.830;9.116;2023-06-10T00:11:37;97473.28;;;19.95;59.81
15489;BME280;7846;48.830;9.116;2023-06-10T00:14:03;97475.75;;;19.96;59.98
15489;BME280;7846;48.830;9.116;2023-06-10T00:16:28;97481.94;;;19.78;60.06
15489;BME280;7846;48.830;9.116;2023-06-10T00:18:55;97476.28;;;19.87;60.12
15489;BME280;7846;48.830;9.116;2023-06-10T00:21:21;97476.06;;;19.88;60.21
15489;BME280;7846;48.830;9.116;2023-06-10T00:23:48;97485.41;;;19.79;60.43
15489;BME280;7846;48.830;9.116;2023-06-10T00:26:13;97482.75;;;19.79;60.38
15489;BME280;7846;48.830;9.116;2023-06-10T00:28:39;97478.59;;;19.65;60.92
15489;BME280;7846;48.830;9.116;2023-06-10T00:31:05;97478.31;;;19.73;60.64
15489;BME280;7846;48.830;9.116;2023-06-10T00:33:31;97480.16;;;19.72;60.44
15489;BME280;7846;48.830;9.116;2023-06-10T00:35:56;97478.41;;;19.66;60.24
15489;BME280;7846;48.830;9.116;2023-06-10T00:38:23;97484.38;;;19.80;59.95
15489;BME280;7846;48.830;9.116;2023-06-10T00:40:48;97480.25;;;19.66;60.74
15489;BME280;7846;48.830;9.116;2023-06-10T00:43:15;97477.09;;;19.69;60.22
15489;BME280;7846;48.830;9.116;2023-06-10T00:45:42;97477.22;;;19.62;61.42
15489;BME280;7846;48.830;9.116;2023-06-10T00:48:10;97478.28;;;19.54;61.14
15489;BME280;7846;48.830;9.116;2023-06-10T00:50:35;97478.44;;;19.59;60.79
15489;BME280;7846;48.830;9.116;2023-06-10T00:53:04;97475.75;;;19.59;60.82
15489;BME280;7846;48.830;9.116;2023-06-10T00:55:31;97478.66;;;19.40;61.76
15489;BME280;7846;48.830;9.116;2023-06-10T00:57:57;97479.47;;;19.40;61.55
15489;BME280;7846;48.830;9.116;2023-06-10T01:00:23;97479.53;;;19.33;61.73
15489;BME280;7846;48.830;9.116;2023-06-10T01:02:49;97479.16;;;19.30;61.84
15489;BME280;7846;48.830;9.116;2023-06-10T01:05:14;97481.97;;;19.35;61.40
15489;BME280;7846;48.830;9.116;2023-06-10T01:08:03;97481.22;;;19.28;62.16
15489;BME280;7846;48.830;9.116;2023-06-10T01:10:37;97480.94;;;19.18;62.75
15489;BME280;7846;48.830;9.116;2023-06-10T01:13:06;97470.63;;;19.03;63.09
15489;BME280;7846;48.830;9.116;2023-06-10T01:15:35;97479.72;;;18.95;63.73
15489;BME280;7846;48.830;9.116;2023-06-10T01:18:02;97475.88;;;18.91;64.15
15489;BME280;7846;48.830;9.116;2023-06-10T01:20:29;97473.81;;;18.86;64.32
15489;BME280;7846;48.830;9.116;2023-06-10T01:22:55;97477.81;;;18.77;64.22
15489;BME280;7846;48.830;9.116;2023-06-10T01:25:22;97470.59;;;18.84;64.41
15489;BME280;7846;48.830;9.116;2023-06-10T01:30:57;97465.88;;;18.80;64.11
15489;BME280;7846;48.830;9.116;2023-06-10T01:33:28;97466.25;;;18.83;64.21
15489;BME280;7846;48.830;9.116;2023-06-10T01:35:56;97477.81;;;18.77;64.15
15489;BME280;7846;48.830;9.116;2023-06-10T01:38:24;97478.47;;;18.73;64.31
15489;BME280;7846;48.830;9.116;2023-06-10T01:40:52;97478.00;;;18.76;64.46
15489;BME280;7846;48.830;9.116;2023-06-10T01:43:20;97473.06;;;18.79;63.68
15489;BME280;7846;48.830;9.116;2023-06-10T01:45:45;97483.81;;;18.73;63.42
15489;BME280;7846;48.830;9.116;2023-06-10T01:48:12;97481.16;;;18.73;64.17
15489;BME280;7846;48.830;9.116;2023-06-10T01:50:38;97474.78;;;18.74;64.15
15489;BME280;7846;48.830;9.116;2023-06-10T01:53:04;97486.47;;;18.73;64.03
15489;BME280;7846;48.830;9.116;2023-06-10T01:55:31;97476.88;;;18.65;64.46
15489;BME280;7846;48.830;9.116;2023-06-10T01:57:56;97479.06;;;18.75;64.24
15489;BME280;7846;48.830;9.116;2023-06-10T02:00:22;97476.22;;;18.70;64.21
15489;BME280;7846;48.830;9.116;2023-06-10T02:02:47;97484.22;;;18.70;64.15
15489;BME280;7846;48.830;9.116;2023-06-10T02:05:13;97481.34;;;18.65;63.93
15489;BME280;7846;48.830;9.116;2023-06-10T02:07:38;97487.31;;;18.67;63.87
15489;BME280;7846;48.830;9.116;2023-06-10T02:10:04;97489.75;;;18.68;64.33
15489;BME280;7846;48.830;9.116;2023-06-10T02:12:30;97489.34;;;18.40;65.38
15489;BME280;7846;48.830;9.116;2023-06-10T02:14:56;97487.06;;;18.43;65.08
15489;BME280;7846;48.830;9.116;2023-06-10T02:17:21;97480.91;;;18.43;65.09
15489;BME280;7846;48.830;9.116;2023-06-10T02:19:48;97493.66;;;18.41;64.92
15489;BME280;7846;48.830;9.116;2023-06-10T02:22:21;97484.78;;;18.47;65.40
15489;BME280;7846;48.830;9.116;2023-06-10T02:24:47;97497.25;;;18.21;65.83
15489;BME280;7846;48.830;9.116;2023-06-10T02:27:12;97496.22;;;18.22;65.98
15489;BME280;7846;48.830;9.116;2023-06-10T02:29:38;97501.84;;;18.01;66.24
15489;BME280;7846;48.830;9.116;2023-06-10T02:32:04;97505.44;;;17.68;67.64
15489;BME280;7846;48.830;9.116;2023-06-10T02:34:29;97501.53;;;17.84;67.47
15489;BME280;7846;48.830;9.116;2023-06-10T02:36:56;97507.28;;;17.81;67.22
15489;BME280;7846;48.830;9.116;2023-06-10T02:39:22;97507.66;;;17.84;67.36
15489;BME280;7846;48.830;9.116;2023-06-10T02:41:50;97507.47;;;17.79;67.50
15489;BME280;7846;48.830;9.116;2023-06-10T02:44:17;97507.25;;;17.87;67.06
15489;BME280;7846;48.830;9.116;2023-06-10T02:46:43;97512.34;;;17.89;66.73
15489;BME280;7846;48.830;9.116;2023-06-10T02:49:08;97510.91;;;17.93;66.57
15489;BME280;7846;48.830;9.116;2023-06-10T02:51:34;97512.75;;;17.93;66.50
15489;BME280;7846;48.830;9.116;2023-06-10T02:54:02;97505.13;;;18.03;66.47
15489;BME280;7846;48.830;9.116;2023-06-10T02:56:27;97502.94;;;17.86;67.22
15489;BME280;7846;48.830;9.116;2023-06-10T02:58:53;97506.41;;;17.87;67.28
15489;BME280;7846;48.830;9.116;2023-06-10T03:01:18;97511.97;;;17.85;67.13
15489;BME280;7846;48.830;9.116;2023-06-10T03:03:45;97510.88;;;18.00;67.06
15489;BME280;7846;48.830;9.116;2023-06-10T03:06:13;97509.19;;;18.05;66.53
15489;BME280;7846;48.830;9.116;2023-06-10T03:08:39;97511.31;;;17.97;66.64
15489;BME280;7846;48.830;9.116;2023-06-10T03:11:05;97517.13;;;17.80;67.41
15489;BME280;7846;48.830;9.116;2023-06-10T03:13:30;97522.03;;;17.77;67.47
15489;BME280;7846;48.830;9.116;2023-06-10T03:15:58;97520.00;;;17.65;67.99
15489;BME280;7846;48.830;9.116;2023-06-10T03:18:26;97519.97;;;17.79;67.84
15489;BME280;7846;48.830;9.116;2023-06-10T03:20:52;97521.63;;;17.73;67.83
15489;BME280;7846;48.830;9.116;2023-06-10T03:23:18;97529.59;;;17.73;67.34
15489;BME280;7846;48.830;9.116;2023-06-10T03:25:44;97530.84;;;17.77;67.18
15489;BME280;7846;48.830;9.116;2023-06-10T03:28:09;97531.47;;;17.59;67.59
15489;BME280;7846;48.830;9.116;2023-06-10T03:30:35;97537.44;;;17.55;67.83
15489;BME280;7846;48.830;9.116;2023-06-10T03:33:00;97529.38;;;17.75;66.75
15489;BME280;7846;48.830;9.116;2023-06-10T03:35:27;97541.69;;;17.76;67.06
15489;BME280;7846;48.830;9.116;2023-06-10T03:37:53;97538.84;;;17.57;67.39
15489;BME280;7846;48.830;9.116;2023-06-10T03:40:19;97544.53;;;17.74;66.97
15489;BME280;7846;48.830;9.116;2023-06-10T03:42:45;97543.94;;;17.79;66.70
15489;BME280;7846;48.830;9.116;2023-06-10T03:45:10;97541.09;;;17.60;67.63
15489;BME280;7846;48.830;9.116;2023-06-10T03:47:37;97553.78;;;17.65;67.55
15489;BME280;7846;48.830;9.116;2023-06-10T03:50:06;97546.56;;;17.85;67.40
15489;BME280;7846;48.830;9.116;2023-06-10T03:52:33;97545.53;;;17.86;67.00
15489;BME280;7846;48.830;9.116;2023-06-10T03:54:58;97547.00;;;17.76;66.90
15489;BME280;7846;48.830;9.116;2023-06-10T03:57:26;97544.97;;;17.78;67.05
15489;BME280;7846;48.830;9.116;2023-06-10T03:59:54;97550.06;;;17.86;67.07
15489;BME280;7846;48.830;9.116;2023-06-10T04:02:20;97553.75;;;17.92;66.73
15489;BME280;7846;48.830;9.116;2023-06-10T04:04:47;97559.41;;;18.02;66.12
15489;BME280;7846;48.830;9.116;2023-06-10T04:07:13;97556.53;;;18.10;66.25
15489;BME280;7846;48.830;9.116;2023-06-10T04:09:39;97564.53;;;18.10;65.80
15489;BME280;7846;48.830;9.116;2023-06-10T04:12:05;97553.81;;;18.17;65.68
15489;BME280;7846;48.830;9.116;2023-06-10T04:14:36;97549.22;;;18.37;65.30
15489;BME280;7846;48.830;9.116;2023-06-10T04:17:04;97552.47;;;18.39;65.44
15489;BME280;7846;48.830;9.116;2023-06-10T04:19:32;97547.19;;;18.64;64.80
15489;BME280;7846;48.830;9.116;2023-06-10T04:22:00;97547.34;;;18.76;64.25
15489;BME280;7846;48.830;9.116;2023-06-10T04:24:25;97549.16;;;18.82;63.89
15489;BME280;7846;48.830;9.116;2023-06-10T04:26:51;97550.22;;;18.81;64.45
15489;BME280;7846;48.830;9.116;2023-06-10T04:29:17;97562.84;;;18.92;63.83
15489;BME280;7846;48.830;9.116;2023-06-10T04:31:42;97563.66;;;19.18;63.33
15489;BME280;7846;48.830;9.116;2023-06-10T04:34:08;97563.44;;;19.19;63.16
15489;BME280;7846;48.830;9.116;2023-06-10T04:36:34;97565.63;;;19.29;62.57
15489;BME280;7846;48.830;9.116;2023-06-10T04:39:00;97567.97;;;19.19;62.57
15489;BME280;7846;48.830;9.116;2023-06-10T04:41:26;97577.25;;;19.34;62.45
15489;BME280;7846;48.830;9.116;2023-06-10T04:43:52;97574.25;;;19.49;61.63
15489;BME280;7846;48.830;9.116;2023-06-10T04:46:18;97568.97;;;19.68;61.67
15489;BME280;7846;48.830;9.116;2023-06-10T04:48:45;97568.47;;;19.77;61.41
15489;BME280;7846;48.830;9.116;2023-06-10T04:51:13;97569.56;;;19.88;60.91
15489;BME280;7846;48.830;9.116;2023-06-10T04:53:39;97573.72;;;19.66;60.89
15489;BME280;7846;48.830;9.116;2023-06-10T04:56:04;97575.88;;;19.94;60.57
15489;BME280;7846;48.830;9.116;2023-06-10T04:58:30;97575.19;;;20.17;60.14
15489;BME280;7846;48.830;9.116;2023-06-10T05:00:56;97575.84;;;20.30;59.56
15489;BME280;7846;48.830;9.116;2023-06-10T05:03:23;97576.09;;;20.59;59.05
15489;BME280;7846;48.830;9.116;2023-06-10T05:05:48;97577.81;;;20.53;58.85
15489;BME280;7846;48.830;9.116;2023-06-10T05:08:13;97573.28;;;20.54;58.76
15489;BME280;7846;48.830;9.116;2023-06-10T05:10:39;97569.66;;;20.78;58.17
15489;BME280;7846;48.830;9.116;2023-06-10T05:13:04;97573.50;;;20.83;58.04
15489;BME280;7846;48.830;9.116;2023-06-10T05:15:30;97572.59;;;20.89;57.93
15489;BME280;7846;48.830;9.116;2023-06-10T05:17:58;97572.16;;;21.03;58.05
15489;BME280;7846;48.830;9.116;2023-06-10T05:20:25;97569.38;;;21.22;57.15
15489;BME280;7846;48.830;9.116;2023-06-10T05:22:50;97576.19;;;21.36;56.73
15489;BME280;7846;48.830;9.116;2023-06-10T05:25:16;97567.97;;;21.19;57.32
15489;BME280;7846;48.830;9.116;2023-06-10T05:27:42;97576.06;;;21.55;57.10
15489;BME280;7846;48.830;9.116;2023-06-10T05:30:09;97578.25;;;21.81;56.50
15489;BME280;7846;48.830;9.116;2023-06-10T05:32:36;97585.25;;;21.70;56.77
15489;BME280;7846;48.830;9.116;2023-06-10T05:35:01;97584.03;;;22.02;56.50
15489;BME280;7846;48.830;9.116;2023-06-10T05:37:29;97589.09;;;22.38;55.67
15489;BME280;7846;48.830;9.116;2023-06-10T05:39:54;97586.41;;;22.67;55.17
15489;BME280;7846;48.830;9.116;2023-06-10T05:42:19;97589.09;;;22.67;55.24
15489;BME280;7846;48.830;9.116;2023-06-10T05:44:45;97587.84;;;22.86;54.92
15489;BME280;7846;48.830;9.116;2023-06-10T05:47:10;97583.81;;;22.72;55.01
15489;BME280;7846;48.830;9.116;2023-06-10T05:49:36;97591.88;;;22.72;55.00
15489;BME280;7846;48.830;9.116;2023-06-10T05:52:01;97591.63;;;23.02;54.54
15489;BME280;7846;48.830;9.116;2023-06-10T05:54:28;97595.88;;;23.49;53.82
15489;BME280;7846;48.830;9.116;2023-06-10T05:56:53;97592.03;;;23.45;53.64
15489;BME280;7846;48.830;9.116;2023-06-10T05:59:20;97594.81;;;23.33;54.38
15489;BME280;7846;48.830;9.116;2023-06-10T06:01:45;97591.38;;;23.71;54.03
15489;BME280;7846;48.830;9.116;2023-06-10T06:04:10;97593.72;;;23.84;53.21
15489;BME280;7846;48.830;9.116;2023-06-10T06:06:38;97599.06;;;24.01;53.61
15489;BME280;7846;48.830;9.116;2023-06-10T06:09:04;97592.78;;;24.18;52.35
15489;BME280;7846;48.830;9.116;2023-06-10T06:11:29;97593.94;;;24.00;52.18
15489;BME280;7846;48.830;9.116;2023-06-10T06:13:55;97598.56;;;24.26;52.49
15489;BME280;7846;48.830;9.116;2023-06-10T06:16:21;97599.38;;;24.27;51.67
15489;BME280;7846;48.830;9.116;2023-06-10T06:18:46;97592.44;;;24.31;51.61
15489;BME280;7846;48.830;9.116;2023-06-10T06:21:11;97600.13;;;24.00;52.25
15489;BME280;7846;48.830;9.116;2023-06-10T06:23:37;97601.00;;;24.50;51.77
15489;BME280;7846;48.830;9.116;2023-06-10T06:26:02;97600.81;;;24.56;52.06
15489;BME280;7846;48.830;9.116;2023-06-10T06:28:28;97607.84;;;24.84;50.66
15489;BME280;7846;48.830;9.116;2023-06-10T06:30:56;97606.81;;;25.18;50.52
15489;BME280;7846;48.830;9.116;2023-06-10T06:33:21;97601.56;;;24.74;50.79
15489;BME280;7846;48.830;9.116;2023-06-10T06:35:47;97603.78;;;24.55;50.75
15489;BME280;7846;48.830;9.116;2023-06-10T06:38:12;97603.59;;;24.89;50.32
15489;BME280;7846;48.830;9.116;2023-06-10T06:40:37;97601.50;;;25.23;49.72
15489;BME280;7846;48.830;9.116;2023-06-10T06:43:03;97600.63;;;24.90;49.67
15489;BME280;7846;48.830;9.116;2023-06-10T06:45:28;97603.16;;;25.02;50.76
15489;BME280;7846;48.830;9.116;2023-06-10T06:47:53;97604.25;;;24.74;49.89
15489;BME280;7846;48.830;9.116;2023-06-10T06:50:19;97601.91;;;24.82;50.29
15489;BME280;7846;48.830;9.116;2023-06-10T06:52:44;97598.78;;;24.69;49.83
15489;BME280;7846;48.830;9.116;2023-06-10T06:55:10;97599.09;;;24.99;49.82
15489;BME280;7846;48.830;9.116;2023-06-10T06:57:36;97597.38;;;25.15;49.24
15489;BME280;7846;48.830;9.116;2023-06-10T07:00:03;97598.88;;;25.70;49.54
15489;BME280;7846;48.830;9.116;2023-06-10T07:02:30;97605.28;;;26.06;47.90
15489;BME280;7846;48.830;9.116;2023-06-10T07:04:57;97607.81;;;26.23;47.42
15489;BME280;7846;48.830;9.116;2023-06-10T07:07:24;97601.00;;;26.78;46.98
15489;BME280;7846;48.830;9.116;2023-06-10T07:09:49;97609.41;;;26.92;46.83
15489;BME280;7846;48.830;9.116;2023-06-10T07:12:14;97615.00;;;26.65;46.93
15489;BME280;7846;48.830;9.116;2023-06-10T07:14:40;97610.91;;;26.58;47.28
15489;BME280;7846;48.830;9.116;2023-06-10T07:17:05;97616.09;;;26.79;46.35
15489;BME280;7846;48.830;9.116;2023-06-10T07:19:30;97615.38;;;27.20;45.59
15489;BME280;7846;48.830;9.116;2023-06-10T07:21:59;97612.69;;;26.26;46.90
15489;BME280;7846;48.830;9.116;2023-06-10T07:24:25;97619.03;;;26.00;47.96
15489;BME280;7846;48.830;9.116;2023-06-10T07:26:50;97612.81;;;26.62;47.37
15489;BME280;7846;48.830;9.116;2023-06-10T07:29:16;97607.28;;;26.26;48.11
15489;BME280;7846;48.830;9.116;2023-06-10T07:31:43;97607.81;;;27.17;45.80
15489;BME280;7846;48.830;9.116;2023-06-10T07:34:09;97610.53;;;27.37;45.71
15489;BME280;7846;48.830;9.116;2023-06-10T07:36:35;97602.88;;;26.88;45.81
15489;BME280;7846;48.830;9.116;2023-06-10T07:39:01;97598.38;;;26.26;47.18
15489;BME280;7846;48.830;9.116;2023-06-10T07:41:27;97609.72;;;27.32;46.31
15489;BME280;7846;48.830;9.116;2023-06-10T07:43:53;97601.88;;;27.35;45.73
15489;BME280;7846;48.830;9.116;2023-06-10T07:46:23;97603.13;;;28.04;45.27
15489;BME280;7846;48.830;9.116;2023-06-10T07:48:49;97597.72;;;26.76;45.38
15489;BME280;7846;48.830;9.116;2023-06-10T07:51:16;97601.03;;;27.81;45.47
15489;BME280;7846;48.830;9.116;2023-06-10T07:53:41;97600.75;;;27.82;45.02
15489;BME280;7846;48.830;9.116;2023-06-10T07:56:07;97601.00;;;27.96;44.47
15489;BME280;7846;48.830;9.116;2023-06-10T07:58:32;97603.19;;;27.89;43.89
15489;BME280;7846;48.830;9.116;2023-06-10T08:00:58;97602.97;;;27.19;44.96
15489;BME280;7846;48.830;9.116;2023-06-10T08:03:24;97598.84;;;27.88;45.28
15489;BME280;7846;48.830;9.116;2023-06-10T08:05:49;97598.06;;;27.82;44.42
15489;BME280;7846;48.830;9.116;2023-06-10T08:08:15;97599.31;;;28.10;44.58
15489;BME280;7846;48.830;9.116;2023-06-10T08:10:53;97599.25;;;28.41;44.14
15489;BME280;7846;48.830;9.116;2023-06-10T08:13:20;97604.81;;;27.44;45.18
15489;BME280;7846;48.830;9.116;2023-06-10T08:15:48;97597.81;;;27.38;45.73
15489;BME280;7846;48.830;9.116;2023-06-10T08:18:15;97591.31;;;27.44;45.85
15489;BME280;7846;48.830;9.116;2023-06-10T08:20:41;97597.69;;;28.09;44.97
15489;BME280;7846;48.830;9.116;2023-06-10T08:23:07;97591.13;;;28.41;43.99
15489;BME280;7846;48.830;9.116;2023-06-10T08:25:33;97595.31;;;28.67;44.40
15489;BME280;7846;48.830;9.116;2023-06-10T08:27:58;97588.88;;;27.53;45.37
15489;BME280;7846;48.830;9.116;2023-06-10T08:30:26;97593.19;;;27.43;45.88
15489;BME280;7846;48.830;9.116;2023-06-10T08:32:52;97589.94;;;27.82;44.96
15489;BME280;7846;48.830;9.116;2023-06-10T08:35:17;97593.72;;;27.71;45.14
15489;BME280;7846;48.830;9.116;2023-06-10T08:37:42;97601.31;;;27.79;45.32
15489;BME280;7846;48.830;9.116;2023-06-10T08:40:10;97600.47;;;28.59;44.31
15489;BME280;7846;48.830;9.116;2023-06-10T08:45:18;97595.75;;;28.25;44.81
15489;BME280;7846;48.830;9.116;2023-06-10T08:47:49;97599.72;;;28.53;44.28
15489;BME280;7846;48.830;9.116;2023-06-10T08:50:17;97596.84;;;28.79;44.09
15489;BME280;7846;48.830;9.116;2023-06-10T08:52:44;97592.56;;;29.46;42.85
15489;BME280;7846;48.830;9.116;2023-06-10T08:55:37;97595.47;;;29.84;42.24
15489;BME280;7846;48.830;9.116;2023-06-10T08:58:04;97589.81;;;29.22;41.94
15489;BME280;7846;48.830;9.116;2023-06-10T09:00:31;97589.31;;;29.44;42.46
15489;BME280;7846;48.830;9.116;2023-06-10T09:02:58;97593.13;;;29.48;42.96
15489;BME280;7846;48.830;9.116;2023-06-10T09:05:24;97589.19;;;29.64;42.22
15489;BME280;7846;48.830;9.116;2023-06-10T09:07:52;97597.34;;;28.86;43.02
15489;BME280;7846;48.830;9.116;2023-06-10T09:10:19;97578.28;;;29.35;42.56
15489;BME280;7846;48.830;9.116;2023-06-10T09:12:44;97584.56;;;29.31;43.19
15489;BME280;7846;48.830;9.116;2023-06-10T09:15:11;97582.16;;;29.87;41.63
15489;BME280;7846;48.830;9.116;2023-06-10T09:17:38;97582.44;;;29.86;41.00
15489;BME280;7846;48.830;9.116;2023-06-10T09:20:05;97578.84;;;29.32;42.08
15489;BME280;7846;48.830;9.116;2023-06-10T09:22:31;97573.25;;;30.06;40.76
15489;BME280;7846;48.830;9.116;2023-06-10T09:25:06;97573.13;;;30.40;40.51
15489;BME280;7846;48.830;9.116;2023-06-10T09:27:44;97569.16;;;30.75;40.31
15489;BME280;7846;48.830;9.116;2023-06-10T09:30:10;97567.69;;;29.92;40.15
15489;BME280;7846;48.830;9.116;2023-06-10T09:32:39;97573.81;;;30.03;40.42
15489;BME280;7846;48.830;9.116;2023-06-10T09:35:09;97568.22;;;30.42;39.46
15489;BME280;7846;48.830;9.116;2023-06-10T09:37:38;97561.53;;;30.34;38.96
15489;BME280;7846;48.830;9.116;2023-06-10T09:40:07;97565.63;;;30.75;38.85
15489;BME280;7846;48.830;9.116;2023-06-10T09:42:37;97571.72;;;31.37;38.46
15489;BME280;7846;48.830;9.116;2023-06-10T09:45:04;97582.13;;;31.49;38.82
15489;BME280;7846;48.830;9.116;2023-06-10T09:47:30;97568.09;;;31.88;37.09
15489;BME280;7846;48.830;9.116;2023-06-10T09:49:55;97574.06;;;32.04;36.01
15489;BME280;7846;48.830;9.116;2023-06-10T09:52:25;97574.97;;;31.53;36.56
15489;BME280;7846;48.830;9.116;2023-06-10T09:54:51;97567.25;;;29.27;40.46
15489;BME280;7846;48.830;9.116;2023-06-10T09:57:18;97560.44;;;27.81;42.36
15489;BME280;7846;48.830;9.116;2023-06-10T09:59:45;97554.91;;;29.98;40.01
15489;BME280;7846;48.830;9.116;2023-06-10T10:02:17;97549.34;;;30.51;39.50
15489;BME280;7846;48.830;9.116;2023-06-10T10:04:43;97559.22;;;31.36;38.58
15489;BME280;7846;48.830;9.116;2023-06-10T10:07:10;97558.19;;;31.32;38.10
15489;BME280;7846;48.830;9.116;2023-06-10T10:09:40;97549.50;;;31.76;37.27
15489;BME280;7846;48.830;9.116;2023-06-10T10:12:10;97554.47;;;32.02;37.63
15489;BME280;7846;48.830;9.116;2023-06-10T10:14:37;97559.34;;;31.45;38.28
15489;BME280;7846;48.830;9.116;2023-06-10T10:17:04;97556.19;;;30.67;38.78
15489;BME280;7846;48.830;9.116;2023-06-10T10:19:37;97550.19;;;31.54;38.00
15489;BME280;7846;48.830;9.116;2023-06-10T10:22:08;97548.88;;;30.01;38.67
15489;BME280;7846;48.830;9.116;2023-06-10T10:24:39;97549.69;;;31.20;37.78
15489;BME280;7846;48.830;9.116;2023-06-10T10:27:13;97546.50;;;32.05;36.19
15489;BME280;7846;48.830;9.116;2023-06-10T10:29:41;97540.22;;;32.46;36.32
15489;BME280;7846;48.830;9.116;2023-06-10T10:32:11;97550.09;;;32.56;35.96
15489;BME280;7846;48.830;9.116;2023-06-10T10:34:49;97550.38;;;30.12;38.52
15489;BME280;7846;48.830;9.116;2023-06-10T10:37:19;97541.72;;;31.70;38.05
15489;BME280;7846;48.830;9.116;2023-06-10T10:39:45;97543.97;;;32.23;35.44
15489;BME280;7846;48.830;9.116;2023-06-10T10:42:11;97541.22;;;31.54;36.73
15489;BME280;7846;48.830;9.116;2023-06-10T10:44:39;97540.31;;;31.72;37.52
15489;BME280;7846;48.830;9.116;2023-06-10T10:47:08;97537.44;;;30.47;38.22
15489;BME280;7846;48.830;9.116;2023-06-10T10:49:35;97540.13;;;30.52;38.19
15489;BME280;7846;48.830;9.116;2023-06-10T10:52:03;97543.66;;;31.83;37.15
15489;BME280;7846;48.830;9.116;2023-06-10T10:54:37;97543.78;;;32.92;35.22
15489;BME280;7846;48.830;9.116;2023-06-10T10:57:09;97540.91;;;33.11;35.12
15489;BME280;7846;48.830;9.116;2023-06-10T11:05:05;97537.34;;;32.65;35.41
15489;BME280;7846;48.830;9.116;2023-06-10T11:07:32;97539.06;;;32.61;35.05
15489;BME280;7846;48.830;9.116;2023-06-10T11:10:11;97533.06;;;32.73;34.88
15489;BME280;7846;48.830;9.116;2023-06-10T11:12:50;97526.78;;;32.36;35.16
15489;BME280;7846;48.830;9.116;2023-06-10T11:15:28;97524.97;;;33.49;34.22
15489;BME280;7846;48.830;9.116;2023-06-10T11:18:08;97528.44;;;34.29;33.89
15489;BME280;7846;48.830;9.116;2023-06-10T11:26:17;97532.19;;;35.11;32.13
15489;BME280;7846;48.830;9.116;2023-06-10T11:29:06;97531.06;;;34.95;32.03
15489;BME280;7846;48.830;9.116;2023-06-10T11:31:44;97522.88;;;33.23;32.19
15489;BME280;7846;48.830;9.116;2023-06-10T11:34:11;97522.78;;;33.15;33.15
15489;BME280;7846;48.830;9.116;2023-06-10T11:36:38;97525.63;;;33.55;32.76
15489;BME280;7846;48.830;9.116;2023-06-10T11:39:06;97510.97;;;33.90;32.21
15489;BME280;7846;48.830;9.116;2023-06-10T11:41:33;97512.34;;;33.08;33.02
15489;BME280;7846;48.830;9.116;2023-06-10T11:44:03;97501.97;;;33.19;31.89
15489;BME280;7846;48.830;9.116;2023-06-10T11:46:29;97507.78;;;33.48;33.08
15489;BME280;7846;48.830;9.116;2023-06-10T11:48:57;97498.88;;;34.40;31.57
15489;BME280;7846;48.830;9.116;2023-06-10T11:51:27;97498.97;;;35.39;31.13
15489;BME280;7846;48.830;9.116;2023-06-10T11:53:56;97496.41;;;35.81;30.57
15489;BME280;7846;48.830;9.116;2023-06-10T11:56:23;97502.44;;;35.66;29.07
15489;BME280;7846;48.830;9.116;2023-06-10T11:58:53;97514.56;;;36.45;29.93
15489;BME280;7846;48.830;9.116;2023-06-10T12:01:22;97508.09;;;33.95;30.92
15489;BME280;7846;48.830;9.116;2023-06-10T12:03:56;97497.72;;;34.15;31.97
15489;BME280;7846;48.830;9.116;2023-06-10T12:06:22;97497.25;;;34.04;31.61
15489;BME280;7846;48.830;9.116;2023-06-10T12:08:49;97486.31;;;34.04;31.06
15489;BME280;7846;48.830;9.116;2023-06-10T12:11:14;97487.16;;;34.83;30.79
15489;BME280;7846;48.830;9.116;2023-06-10T12:13:47;97493.94;;;35.58;29.63
15489;BME280;7846;48.830;9.116;2023-06-10T12:16:15;97493.66;;;36.61;28.77
15489;BME280;7846;48.830;9.116;2023-06-10T12:18:46;97500.50;;;37.67;27.29
15489;BME280;7846;48.830;9.116;2023-06-10T12:21:23;97505.19;;;38.40;27.03
15489;BME280;7846;48.830;9.116;2023-06-10T12:26:53;97501.25;;;37.30;27.85
15489;BME280;7846;48.830;9.116;2023-06-10T12:29:22;97491.16;;;34.16;30.34
15489;BME280;7846;48.830;9.116;2023-06-10T12:31:58;97491.06;;;33.50;30.78
15489;BME280;7846;48.830;9.116;2023-06-10T12:34:38;97481.03;;;33.06;31.92
15489;BME280;7846;48.830;9.116;2023-06-10T12:37:10;97477.75;;;33.48;32.41
15489;BME280;7846;48.830;9.116;2023-06-10T12:39:50;97473.31;;;35.91;29.77
15489;BME280;7846;48.830;9.116;2023-06-10T12:42:17;97486.41;;;36.77;28.15
15489;BME280;7846;48.830;9.116;2023-06-10T12:44:53;97477.53;;;34.68;29.60
15489;BME280;7846;48.830;9.116;2023-06-10T12:47:18;97481.06;;;34.51;30.35
15489;BME280;7846;48.830;9.116;2023-06-10T12:49:43;97480.22;;;34.33;31.07
15489;BME280;7846;48.830;9.116;2023-06-10T12:52:09;97479.78;;;34.57;31.22
15489;BME280;7846;48.830;9.116;2023-06-10T12:54:36;97480.25;;;34.59;30.92
15489;BME280;7846;48.830;9.116;2023-06-10T12:57:04;97473.81;;;34.38;31.31
15489;BME280;7846;48.830;9.116;2023-06-10T12:59:29;97475.56;;;34.42;31.07
15489;BME280;7846;48.830;9.116;2023-06-10T13:01:55;97483.53;;;35.34;31.02
15489;BME280;7846;48.830;9.116;2023-06-10T13:04:21;97478.59;;;36.25;29.32
15489;BME280;7846;48.830;9.116;2023-06-10T13:06:48;97484.47;;;36.78;27.80
15489;BME280;7846;48.830;9.116;2023-06-10T13:09:14;97480.94;;;37.93;26.96
15489;BME280;7846;48.830;9.116;2023-06-10T13:11:40;97475.22;;;38.10;26.44
15489;BME280;7846;48.830;9.116;2023-06-10T13:14:09;97477.94;;;37.03;28.08
15489;BME280;7846;48.830;9.116;2023-06-10T13:16:36;97478.94;;;39.90;24.87
15489;BME280;7846;48.830;9.116;2023-06-10T13:19:03;97474.72;;;37.35;26.35
15489;BME280;7846;48.830;9.116;2023-06-10T13:21:30;97470.41;;;37.58;27.41
15489;BME280;7846;48.830;9.116;2023-06-10T13:23:58;97472.94;;;36.85;27.28
15489;BME280;7846;48.830;9.116;2023-06-10T13:26:24;97469.06;;;36.23;27.98
15489;BME280;7846;48.830;9.116;2023-06-10T13:28:50;97458.03;;;34.17;30.35
15489;BME280;7846;48.830;9.116;2023-06-10T13:31:16;97455.94;;;32.95;31.62